createdAt,value
2022-09-07T00:01:06.061Z,13.51
2022-09-07T00:03:34.790Z,13.45
2022-09-07T00:06:08.190Z,13.46
2022-09-07T00:08:36.286Z,13.43
2022-09-07T00:11:07.297Z,13.42
2022-09-07T00:13:38.453Z,13.37
2022-09-07T00:16:10.227Z,13.34
2022-09-07T00:18:42.501Z,13.32
2022-09-07T00:21:14.998Z,13.31
2022-09-07T00:23:43.016Z,13.33
2022-09-07T00:26:14.258Z,13.27
2022-09-07T00:28:43.325Z,13.25
2022-09-07T00:31:16.951Z,13.22
2022-09-07T00:33:46.077Z,13.14
2022-09-07T00:36:13.938Z,13.09
2022-09-07T00:38:41.865Z,13.08
2022-09-07T00:41:10.647Z,13.08
2022-09-07T00:43:54.787Z,13.09
2022-09-07T00:46:25.990Z,13.05
2022-09-07T00:49:14.148Z,12.97
2022-09-07T00:52:04.819Z,12.88
2022-09-07T00:54:37.442Z,12.86
2022-09-07T00:57:06.370Z,12.86
2022-09-07T00:59:42.828Z,12.85
2022-09-07T01:02:12.934Z,12.82
2022-09-07T01:04:41.522Z,12.80
2022-09-07T01:07:09.431Z,12.77
2022-09-07T01:10:02.413Z,12.75
2022-09-07T01:12:30.255Z,12.68
2022-09-07T01:14:57.973Z,12.68
2022-09-07T01:17:49.508Z,12.65
2022-09-07T01:20:29.685Z,12.55
2022-09-07T01:23:18.825Z,12.49
2022-09-07T01:26:09.798Z,12.43
2022-09-07T01:28:39.047Z,12.42
2022-09-07T01:31:33.742Z,12.36
2022-09-07T01:34:15.007Z,12.34
2022-09-07T01:37:03.829Z,12.34
2022-09-07T01:39:55.881Z,12.34
2022-09-07T01:42:31.183Z,12.35
2022-09-07T01:45:02.618Z,12.35
2022-09-07T01:47:33.597Z,12.31
2022-09-07T01:50:19.883Z,12.28
2022-09-07T01:52:54.010Z,12.25
2022-09-07T01:55:38.757Z,12.25
2022-09-07T01:58:28.162Z,12.21
2022-09-07T02:01:11.255Z,12.19
2022-09-07T02:03:48.015Z,12.19
2022-09-07T02:06:56.742Z,12.16
2022-09-07T02:09:52.883Z,12.13
2022-09-07T02:12:27.329Z,12.12
2022-09-07T02:15:04.405Z,12.13
2022-09-07T02:17:37.438Z,12.14
2022-09-07T02:20:11.772Z,12.16
2022-09-07T02:22:44.869Z,12.11
2022-09-07T02:25:21.861Z,12.09
2022-09-07T02:27:57.518Z,12.06
2022-09-07T02:30:25.337Z,12.04
2022-09-07T02:32:53.051Z,12.02
2022-09-07T02:35:21.361Z,12.00
2022-09-07T02:37:50.658Z,12.04
2022-09-07T02:40:18.699Z,12.02
2022-09-07T02:42:48.374Z,11.97
2022-09-07T02:45:17.201Z,11.93
2022-09-07T02:48:06.824Z,11.92
2022-09-07T02:51:07.542Z,11.90
2022-09-07T02:54:06.061Z,11.91
2022-09-07T02:56:45.683Z,11.90
2022-09-07T03:00:01.372Z,11.91
2022-09-07T03:02:31.204Z,11.91
2022-09-07T03:05:03.667Z,11.82
2022-09-07T03:07:44.003Z,11.77
2022-09-07T03:10:14.898Z,11.73
2022-09-07T03:12:46.263Z,11.71
2022-09-07T03:15:17.705Z,11.68
2022-09-07T03:17:46.059Z,11.64
2022-09-07T03:20:13.924Z,11.66
2022-09-07T03:22:41.591Z,11.61
2022-09-07T03:25:09.780Z,11.59
2022-09-07T03:28:03.159Z,11.62
2022-09-07T03:30:31.081Z,11.55
2022-09-07T03:33:02.691Z,11.54
2022-09-07T03:35:30.438Z,11.52
2022-09-07T03:37:58.293Z,11.51
2022-09-07T03:40:25.960Z,11.53
2022-09-07T03:42:54.050Z,11.52
2022-09-07T03:45:21.929Z,11.47
2022-09-07T03:47:51.329Z,11.46
2022-09-07T03:50:19.124Z,11.46
2022-09-07T03:52:46.632Z,11.49
2022-09-07T03:55:14.401Z,11.48
2022-09-07T03:57:43.655Z,11.50
2022-09-07T04:00:12.123Z,11.49
2022-09-07T04:02:42.889Z,11.49
2022-09-07T04:05:11.682Z,11.48
2022-09-07T04:07:39.578Z,11.46
2022-09-07T04:10:07.964Z,11.47
2022-09-07T04:12:35.717Z,11.47
2022-09-07T04:15:08.186Z,11.46
2022-09-07T04:17:35.972Z,11.44
2022-09-07T04:20:05.362Z,11.38
2022-09-07T04:22:33.259Z,11.39
2022-09-07T04:25:00.987Z,11.43
2022-09-07T04:27:28.773Z,11.46
2022-09-07T04:29:56.379Z,11.52
2022-09-07T04:32:24.239Z,11.54
2022-09-07T04:34:54.080Z,11.56
2022-09-07T04:37:21.778Z,11.59
2022-09-07T04:39:49.685Z,11.61
2022-09-07T04:42:17.889Z,11.66
2022-09-07T04:44:45.507Z,11.72
2022-09-07T04:47:13.209Z,11.80
2022-09-07T04:49:40.861Z,11.84
2022-09-07T04:52:08.570Z,11.88
2022-09-07T04:54:36.264Z,11.93
2022-09-07T04:57:04.023Z,11.98
2022-09-07T04:59:31.671Z,12.01
2022-09-07T05:01:59.629Z,11.98
2022-09-07T05:04:27.472Z,11.98
2022-09-07T05:06:55.337Z,11.96
2022-09-07T05:09:23.146Z,11.94
2022-09-07T05:11:52.688Z,12.00
2022-09-07T05:14:22.427Z,12.05
2022-09-07T05:17:16.309Z,12.06
2022-09-07T05:19:44.178Z,12.09
2022-09-07T05:22:11.926Z,12.12
2022-09-07T05:24:39.706Z,12.18
2022-09-07T05:27:07.603Z,12.24
2022-09-07T05:32:23.273Z,12.41
2022-09-07T05:34:52.916Z,12.50
2022-09-07T05:37:20.813Z,12.58
2022-09-07T05:39:48.551Z,12.70
2022-09-07T05:42:16.549Z,12.80
2022-09-07T05:44:45.399Z,12.95
2022-09-07T05:47:13.995Z,13.11
2022-09-07T05:49:41.777Z,13.25
2022-09-07T05:52:10.614Z,13.42
2022-09-07T05:54:38.691Z,13.61
2022-09-07T05:57:07.522Z,13.75
2022-09-07T05:59:35.571Z,13.82
2022-09-07T06:02:06.709Z,13.96
2022-09-07T06:04:34.549Z,14.02
2022-09-07T06:07:21.025Z,14.16
2022-09-07T06:12:37.714Z,14.48
2022-09-07T06:15:08.201Z,14.62
2022-09-07T06:17:36.100Z,14.70
2022-09-07T06:20:05.444Z,14.85
2022-09-07T06:22:37.146Z,15.06
2022-09-07T06:25:05.873Z,15.20
2022-09-07T06:27:33.830Z,15.32
2022-09-07T06:30:01.717Z,15.45
2022-09-07T06:32:45.918Z,15.54
2022-09-07T06:35:15.270Z,15.68
2022-09-07T06:37:43.590Z,15.80
2022-09-07T06:40:12.152Z,15.95
2022-09-07T06:42:40.812Z,16.11
2022-09-07T06:45:11.638Z,16.24
2022-09-07T06:47:40.295Z,16.37
2022-09-07T06:50:08.763Z,16.50
2022-09-07T06:55:28.092Z,16.82
2022-09-07T06:57:55.979Z,16.92
2022-09-07T07:00:23.923Z,16.89
2022-09-07T07:02:51.813Z,16.95
2022-09-07T07:05:19.624Z,17.05
2022-09-07T07:07:47.289Z,17.17
2022-09-07T07:10:15.149Z,17.27
2022-09-07T07:15:10.321Z,17.48
2022-09-07T07:17:38.095Z,17.59
2022-09-07T07:20:07.281Z,17.68
2022-09-07T07:22:50.207Z,17.81
2022-09-07T07:25:18.823Z,17.83
2022-09-07T07:27:46.964Z,17.95
2022-09-07T07:30:16.773Z,18.07
2022-09-07T07:32:45.222Z,18.27
2022-09-07T07:35:14.246Z,18.40
2022-09-07T07:37:42.046Z,18.53
2022-09-07T07:42:45.142Z,18.72
2022-09-07T07:48:01.230Z,19.02
2022-09-07T07:50:31.019Z,19.11
2022-09-07T07:55:47.493Z,19.23
2022-09-07T07:58:15.241Z,19.42
2022-09-07T08:00:58.618Z,19.47
2022-09-07T08:03:26.713Z,19.57
2022-09-07T08:05:54.801Z,19.77
2022-09-07T08:08:24.304Z,19.99
2022-09-07T08:10:52.306Z,20.15
2022-09-07T08:13:21.699Z,20.24
2022-09-07T08:15:49.686Z,20.32
2022-09-07T08:18:17.832Z,20.42
2022-09-07T08:20:45.688Z,20.43
2022-09-07T08:23:13.450Z,20.27
2022-09-07T08:25:50.694Z,20.14
2022-09-07T08:28:19.764Z,20.21
2022-09-07T08:30:47.985Z,20.34
2022-09-07T08:33:16.237Z,20.35
2022-09-07T08:35:54.735Z,20.34
2022-09-07T08:38:22.878Z,20.39
2022-09-07T08:40:50.977Z,20.53
2022-09-07T08:43:50.112Z,20.60
2022-09-07T08:46:42.964Z,20.62
2022-09-07T08:49:36.590Z,20.65
2022-09-07T08:52:13.991Z,20.66
2022-09-07T08:54:46.270Z,20.72
2022-09-07T08:57:21.117Z,20.74
2022-09-07T08:59:57.808Z,20.76
2022-09-07T09:02:27.767Z,20.79
2022-09-07T09:08:01.736Z,20.92
2022-09-07T09:10:58.570Z,20.92
2022-09-07T09:14:01.032Z,20.88
2022-09-07T09:16:43.661Z,20.92
2022-09-07T09:19:36.250Z,21.01
2022-09-07T09:22:17.737Z,21.10
2022-09-07T09:24:53.581Z,21.07
2022-09-07T09:27:21.434Z,20.92
2022-09-07T09:29:49.029Z,20.96
2022-09-07T09:32:33.393Z,21.08
2022-09-07T09:35:23.392Z,21.10
2022-09-07T09:37:51.412Z,20.92
2022-09-07T09:40:33.253Z,20.85
2022-09-07T09:43:05.907Z,20.83
2022-09-07T09:48:39.406Z,20.96
2022-09-07T09:54:03.070Z,21.21
2022-09-07T09:56:42.934Z,21.29
2022-09-07T10:05:33.559Z,21.30
2022-09-07T10:08:04.181Z,21.30
2022-09-07T10:10:32.416Z,21.38
2022-09-07T10:13:00.232Z,21.52
2022-09-07T10:15:40.559Z,21.61
2022-09-07T10:18:22.067Z,21.64
2022-09-07T10:20:50.000Z,21.67
2022-09-07T10:23:25.731Z,21.76
2022-09-07T10:25:53.667Z,21.79
2022-09-07T10:28:25.160Z,21.88
2022-09-07T10:30:55.823Z,21.92
2022-09-07T10:34:32.797Z,21.99
2022-09-07T10:37:04.086Z,22.04
2022-09-07T10:39:37.178Z,21.92
2022-09-07T10:42:31.123Z,21.90
2022-09-07T10:45:01.989Z,21.96
2022-09-07T10:47:43.785Z,22.02
2022-09-07T10:50:35.658Z,22.15
2022-09-07T10:53:39.432Z,22.21
2022-09-07T10:56:31.675Z,22.26
2022-09-07T10:59:08.499Z,22.26
2022-09-07T11:01:42.105Z,22.30
2022-09-07T11:04:12.393Z,22.19
2022-09-07T11:06:44.113Z,22.08
2022-09-07T11:09:39.521Z,22.07
2022-09-07T11:12:14.812Z,22.13
2022-09-07T11:14:53.085Z,22.11
2022-09-07T11:17:27.115Z,22.11
2022-09-07T11:20:17.954Z,22.12
2022-09-07T11:23:04.260Z,22.16
2022-09-07T11:25:46.632Z,22.28
2022-09-07T11:28:21.188Z,22.36
2022-09-07T11:31:00.297Z,22.47
2022-09-07T11:37:14.266Z,22.52
2022-09-07T11:39:51.244Z,22.58
2022-09-07T11:42:48.820Z,22.59
2022-09-07T11:45:38.636Z,22.64
2022-09-07T11:48:06.657Z,22.71
2022-09-07T11:50:39.567Z,22.76
2022-09-07T11:53:15.896Z,22.74
2022-09-07T11:55:48.590Z,22.70
2022-09-07T11:58:55.130Z,22.63
2022-09-07T12:01:25.863Z,22.59
2022-09-07T12:04:15.489Z,22.60
2022-09-07T12:07:00.849Z,22.62
2022-09-07T12:09:38.062Z,22.58
2022-09-07T12:12:11.769Z,22.49
2022-09-07T12:15:10.070Z,22.44
2022-09-07T12:17:48.353Z,22.40
2022-09-07T12:20:19.301Z,22.43
2022-09-07T12:23:04.896Z,22.37
2022-09-07T12:25:35.364Z,22.37
2022-09-07T12:28:03.463Z,22.42
2022-09-07T12:30:32.089Z,22.47
2022-09-07T12:33:04.684Z,22.47
2022-09-07T12:35:42.177Z,22.52
2022-09-07T12:38:19.055Z,22.48
2022-09-07T12:40:49.814Z,22.44
2022-09-07T12:43:17.534Z,22.41
2022-09-07T12:45:51.552Z,22.42
2022-09-07T12:48:19.414Z,22.37
2022-09-07T12:51:11.166Z,22.38
2022-09-07T12:53:58.097Z,22.45
2022-09-07T12:56:44.184Z,22.50
2022-09-07T12:59:33.323Z,22.54
2022-09-07T13:02:27.075Z,22.56
2022-09-07T13:05:20.696Z,22.49
2022-09-07T13:08:09.534Z,22.43
2022-09-07T13:10:39.965Z,22.43
2022-09-07T13:16:14.050Z,22.46
2022-09-07T13:18:44.743Z,22.47
2022-09-07T13:21:13.232Z,22.40
2022-09-07T13:23:45.753Z,22.32
2022-09-07T13:26:57.826Z,22.33
2022-09-07T13:29:37.036Z,22.36
2022-09-07T13:32:08.021Z,22.32
2022-09-07T13:34:35.793Z,22.24
2022-09-07T13:37:14.984Z,22.24
2022-09-07T13:39:47.052Z,22.28
2022-09-07T13:42:36.225Z,22.29
2022-09-07T13:45:07.761Z,22.26
2022-09-07T13:48:01.722Z,22.29
2022-09-07T13:50:32.401Z,22.30
2022-09-07T13:53:15.066Z,22.30
2022-09-07T13:56:15.286Z,22.29
2022-09-07T13:58:46.713Z,22.25
2022-09-07T14:01:17.764Z,22.24
2022-09-07T14:04:06.748Z,22.18
2022-09-07T14:06:37.161Z,22.16
2022-09-07T14:09:04.956Z,22.15
2022-09-07T14:11:43.445Z,22.23
2022-09-07T14:14:27.354Z,22.25
2022-09-07T14:17:01.800Z,22.29
2022-09-07T14:19:39.912Z,22.39
2022-09-07T14:22:11.473Z,22.50
2022-09-07T14:24:49.422Z,22.58
2022-09-07T14:27:22.119Z,22.70
2022-09-07T14:29:50.753Z,22.79
2022-09-07T14:32:28.028Z,22.87
2022-09-07T14:34:55.798Z,22.93
2022-09-07T14:37:24.059Z,22.90
2022-09-07T14:39:53.069Z,22.88
2022-09-07T14:42:23.752Z,22.85
2022-09-07T14:45:20.802Z,22.71
2022-09-07T14:47:54.414Z,22.61
2022-09-07T14:50:27.594Z,22.51
2022-09-07T14:55:47.735Z,22.32
2022-09-07T14:58:15.316Z,22.23
2022-09-07T15:00:45.969Z,22.18
2022-09-07T15:03:27.757Z,22.13
2022-09-07T15:06:01.260Z,22.02
2022-09-07T15:08:42.061Z,22.00
2022-09-07T15:11:36.505Z,21.96
2022-09-07T15:14:15.175Z,21.89
2022-09-07T15:16:45.627Z,21.85
2022-09-07T15:19:16.231Z,21.79
2022-09-07T15:21:45.223Z,21.74
2022-09-07T15:24:13.104Z,21.69
2022-09-07T15:27:03.379Z,21.69
2022-09-07T15:29:32.085Z,21.64
2022-09-07T15:32:04.369Z,21.57
2022-09-07T15:34:34.382Z,21.55
2022-09-07T15:37:03.689Z,21.50
2022-09-07T15:39:34.519Z,21.48
2022-09-07T15:44:51.757Z,21.33
2022-09-07T15:50:08.233Z,21.26
2022-09-07T15:52:36.092Z,21.21
2022-09-07T15:55:04.282Z,21.19
2022-09-07T15:57:48.742Z,21.16
2022-09-07T16:00:18.267Z,21.13
2022-09-07T16:03:05.381Z,21.11
2022-09-07T16:05:34.237Z,21.01
2022-09-07T16:10:54.277Z,20.95
2022-09-07T16:13:24.472Z,20.95
2022-09-07T16:15:52.892Z,20.90
2022-09-07T16:18:20.775Z,20.86
2022-09-07T16:20:52.587Z,20.77
2022-09-07T16:23:20.545Z,20.70
2022-09-07T16:25:59.650Z,20.64
2022-09-07T16:28:28.855Z,20.61
2022-09-07T16:30:57.498Z,20.54
2022-09-07T16:33:32.988Z,20.50
2022-09-07T16:36:12.010Z,20.42
2022-09-07T16:38:45.007Z,20.29
2022-09-07T16:41:26.828Z,20.23
2022-09-07T16:43:55.110Z,20.14
2022-09-07T16:46:25.796Z,20.13
2022-09-07T16:48:54.164Z,20.11
2022-09-07T16:51:22.939Z,20.03
2022-09-07T16:53:53.424Z,19.96
2022-09-07T16:56:23.922Z,19.89
2022-09-07T16:58:54.781Z,19.80
2022-09-07T17:01:31.062Z,19.74
2022-09-07T17:03:59.777Z,19.68
2022-09-07T17:06:29.730Z,19.62
2022-09-07T17:08:59.299Z,19.53
2022-09-07T17:11:30.752Z,19.46
2022-09-07T17:13:59.119Z,19.38
2022-09-07T17:16:32.265Z,19.33
2022-09-07T17:21:52.042Z,19.16
2022-09-07T17:24:19.904Z,19.08
2022-09-07T17:26:47.836Z,19.04
2022-09-07T17:29:15.558Z,18.99
2022-09-07T17:34:31.295Z,18.84
2022-09-07T17:37:00.650Z,18.79
2022-09-07T17:39:29.354Z,18.73
2022-09-07T17:41:57.893Z,18.69
2022-09-07T17:44:25.846Z,18.64
2022-09-07T17:46:53.724Z,18.61
2022-09-07T17:49:21.511Z,18.57
2022-09-07T17:51:49.236Z,18.50
2022-09-07T17:54:17.715Z,18.47
2022-09-07T17:56:46.251Z,18.43
2022-09-07T18:02:04.824Z,18.29
2022-09-07T18:04:32.537Z,18.23
2022-09-07T18:07:00.284Z,18.18
2022-09-07T18:09:27.919Z,18.15
2022-09-07T18:11:55.634Z,18.09
2022-09-07T18:14:23.582Z,18.05
2022-09-07T18:16:51.592Z,18.01
2022-09-07T18:19:19.894Z,17.95
2022-09-07T18:21:49.333Z,17.90
2022-09-07T18:24:23.664Z,17.85
2022-09-07T18:26:55.069Z,17.80
2022-09-07T18:29:32.283Z,17.73
2022-09-07T18:32:09.354Z,17.69
2022-09-07T18:34:50.223Z,17.65
2022-09-07T18:37:25.278Z,17.60
2022-09-07T18:39:57.381Z,17.55
2022-09-07T18:42:45.697Z,17.51
2022-09-07T18:45:27.741Z,17.46
2022-09-07T18:48:03.445Z,17.40
2022-09-07T18:50:56.076Z,17.37
2022-09-07T18:53:46.174Z,17.31
2022-09-07T18:56:28.022Z,17.26
2022-09-07T18:59:06.920Z,17.19
2022-09-07T19:01:48.958Z,17.15
2022-09-07T19:04:24.808Z,17.13
2022-09-07T19:07:05.287Z,17.11
2022-09-07T19:09:43.789Z,17.08
2022-09-07T19:12:33.606Z,17.08
2022-09-07T19:15:12.206Z,17.09
2022-09-07T19:17:47.819Z,17.08
2022-09-07T19:20:37.615Z,17.11
2022-09-07T19:23:22.869Z,17.13
2022-09-07T19:25:50.736Z,17.17
2022-09-07T19:28:19.277Z,17.17
2022-09-07T19:30:46.834Z,17.19
2022-09-07T19:33:14.366Z,17.17
2022-09-07T19:35:42.134Z,17.19
2022-09-07T19:38:10.361Z,17.21
2022-09-07T19:40:38.178Z,17.22
2022-09-07T19:43:06.097Z,17.24
2022-09-07T19:45:37.796Z,17.26
2022-09-07T19:48:05.623Z,17.29
2022-09-07T19:50:37.371Z,17.29
2022-09-07T19:53:05.157Z,17.31
2022-09-07T19:55:32.828Z,17.28
2022-09-07T19:58:00.789Z,17.24
2022-09-07T20:00:28.676Z,17.24
2022-09-07T20:02:56.375Z,17.21
2022-09-07T20:05:24.083Z,17.19
2022-09-07T20:07:51.837Z,17.17
2022-09-07T20:10:19.441Z,17.16
2022-09-07T20:12:47.334Z,17.13
2022-09-07T20:15:15.006Z,17.12
2022-09-07T20:17:42.660Z,17.11
2022-09-07T20:20:10.817Z,17.10
2022-09-07T20:22:38.518Z,17.07
2022-09-07T20:25:10.199Z,17.05
2022-09-07T20:27:40.548Z,17.04
2022-09-07T20:30:08.699Z,17.06
2022-09-07T20:32:36.398Z,17.05
2022-09-07T20:35:09.876Z,17.04
2022-09-07T20:37:53.638Z,17.03
2022-09-07T20:41:04.057Z,17.02
2022-09-07T20:43:51.232Z,16.97
2022-09-07T20:46:36.856Z,16.92
2022-09-07T20:49:07.121Z,16.87
2022-09-07T20:51:35.440Z,16.82
2022-09-07T20:54:03.475Z,16.81
2022-09-07T20:56:31.618Z,16.78
2022-09-07T20:59:02.585Z,16.76
2022-09-07T21:01:32.079Z,16.70
2022-09-07T21:04:01.044Z,16.66
2022-09-07T21:06:29.845Z,16.64
2022-09-07T21:08:57.962Z,16.57
2022-09-07T21:11:31.392Z,16.55
2022-09-07T21:14:06.366Z,16.49
2022-09-07T21:16:35.632Z,16.47
2022-09-07T21:19:06.060Z,16.48
2022-09-07T21:21:39.609Z,16.44
2022-09-07T21:24:18.975Z,16.45
2022-09-07T21:26:47.488Z,16.39
2022-09-07T21:29:23.318Z,16.38
2022-09-07T21:31:53.831Z,16.36
2022-09-07T21:34:22.755Z,16.34
2022-09-07T21:36:50.836Z,16.35
2022-09-07T21:39:19.554Z,16.33
2022-09-07T21:41:47.536Z,16.33
2022-09-07T21:44:16.665Z,16.31
2022-09-07T21:46:45.025Z,16.27
2022-09-07T21:49:14.016Z,16.28
2022-09-07T21:51:43.066Z,16.23
2022-09-07T21:54:10.847Z,16.22
2022-09-07T21:56:42.077Z,16.20
2022-09-07T21:59:17.380Z,16.19
2022-09-07T22:01:45.532Z,16.18
2022-09-07T22:04:13.673Z,16.15
2022-09-07T22:06:41.790Z,16.14
2022-09-07T22:09:09.749Z,16.10
2022-09-07T22:11:37.845Z,16.07
2022-09-07T22:14:06.081Z,16.02
2022-09-07T22:16:35.212Z,15.98
2022-09-07T22:19:03.343Z,15.96
2022-09-07T22:21:31.390Z,15.93
2022-09-07T22:24:02.230Z,15.92
2022-09-07T22:26:34.044Z,15.90
2022-09-07T22:29:01.753Z,15.84
2022-09-07T22:31:32.046Z,15.82
2022-09-07T22:34:01.928Z,15.80
2022-09-07T22:36:38.911Z,15.79
2022-09-07T22:39:11.136Z,15.74
2022-09-07T22:41:40.274Z,15.72
2022-09-07T22:44:13.470Z,15.69
2022-09-07T22:46:42.730Z,15.65
2022-09-07T22:49:13.160Z,15.60
2022-09-07T22:51:40.952Z,15.56
2022-09-07T22:54:08.701Z,15.53
2022-09-07T22:56:37.013Z,15.49
2022-09-07T22:59:10.601Z,15.48
2022-09-07T23:01:38.869Z,15.44
2022-09-07T23:04:07.790Z,15.43
2022-09-07T23:06:38.250Z,15.41
2022-09-07T23:09:15.038Z,15.41
2022-09-07T23:11:44.337Z,15.39
2022-09-07T23:14:17.691Z,15.41
2022-09-07T23:16:46.630Z,15.43
2022-09-07T23:19:16.899Z,15.44
2022-09-07T23:21:45.177Z,15.42
2022-09-07T23:24:15.153Z,15.42
2022-09-07T23:26:43.545Z,15.41
2022-09-07T23:29:12.992Z,15.38
2022-09-07T23:31:41.368Z,15.38
2022-09-07T23:34:09.666Z,15.37
2022-09-07T23:36:37.831Z,15.36
2022-09-07T23:39:05.635Z,15.35
2022-09-07T23:41:33.527Z,15.34
2022-09-07T23:44:01.720Z,15.30
2022-09-07T23:46:29.461Z,15.24
2022-09-07T23:48:57.184Z,15.21
2022-09-07T23:51:25.146Z,15.18
2022-09-07T23:53:53.636Z,15.14
2022-09-07T23:56:22.153Z,15.09
2022-09-07T23:58:50.061Z,15.02
